createdAt,value
2022-10-17T00:01:46.497Z,101602.50
2022-10-17T00:03:49.323Z,101608.50
2022-10-17T00:05:51.890Z,101587.72
2022-10-17T00:07:55.741Z,101524.16
2022-10-17T00:09:59.124Z,101591.16
2022-10-17T00:12:02.778Z,101605.53
2022-10-17T00:14:05.512Z,101608.66
2022-10-17T00:16:09.819Z,101624.63
2022-10-17T00:18:16.128Z,101582.78
2022-10-17T00:20:18.905Z,101587.34
2022-10-17T00:22:21.487Z,101626.06
2022-10-17T00:24:24.037Z,101642.91
2022-10-17T00:26:27.813Z,101618.00
2022-10-17T00:28:32.973Z,101641.88
2022-10-17T00:30:35.669Z,101611.13
2022-10-17T00:32:38.383Z,101603.41
2022-10-17T00:34:40.994Z,101617.28
2022-10-17T00:36:43.535Z,101601.78
2022-10-17T00:38:48.643Z,101631.84
2022-10-17T00:40:51.209Z,101627.00
2022-10-17T00:42:53.992Z,101607.19
2022-10-17T00:45:22.138Z,101630.22
2022-10-17T00:47:24.737Z,101612.00
2022-10-17T00:49:31.558Z,101595.31
2022-10-17T00:51:42.204Z,101633.72
2022-10-17T00:53:45.699Z,101600.47
2022-10-17T00:55:54.116Z,101609.69
2022-10-17T00:57:59.983Z,101553.94
2022-10-17T01:00:08.301Z,101630.00
2022-10-17T01:02:15.544Z,101636.38
2022-10-17T01:04:19.256Z,101611.00
2022-10-17T01:06:21.859Z,101579.81
2022-10-17T01:08:24.474Z,101617.47
2022-10-17T01:11:02.442Z,101605.66
2022-10-17T01:13:27.525Z,101639.16
2022-10-17T01:15:59.519Z,101636.56
2022-10-17T01:18:29.466Z,101614.47
2022-10-17T01:21:08.194Z,101641.94
2022-10-17T01:23:16.512Z,101645.81
2022-10-17T01:25:52.860Z,101637.25
2022-10-17T01:29:02.023Z,101643.22
2022-10-17T01:31:23.852Z,101589.25
2022-10-17T01:34:08.395Z,101634.50
2022-10-17T01:36:31.906Z,101634.41
2022-10-17T01:39:19.859Z,101637.78
2022-10-17T01:41:52.862Z,101630.19
2022-10-17T01:44:19.749Z,101637.56
2022-10-17T01:46:39.682Z,101600.25
2022-10-17T01:48:45.987Z,101599.91
2022-10-17T01:50:58.783Z,101633.00
2022-10-17T01:53:13.518Z,101607.75
2022-10-17T01:55:32.286Z,101563.06
2022-10-17T01:57:51.419Z,101623.34
2022-10-17T01:59:56.424Z,101610.72
2022-10-17T02:02:00.675Z,101591.78
2022-10-17T02:04:05.981Z,101599.97
2022-10-17T02:06:08.599Z,101603.50
2022-10-17T02:08:12.314Z,101594.78
2022-10-17T02:10:47.742Z,101575.50
2022-10-17T02:13:17.882Z,101607.53
2022-10-17T02:15:45.285Z,101554.00
2022-10-17T02:18:19.134Z,101571.25
2022-10-17T02:20:28.327Z,101595.38
2022-10-17T02:22:44.124Z,101601.31
2022-10-17T02:25:14.770Z,101561.59
2022-10-17T02:27:26.680Z,101608.09
2022-10-17T02:29:37.039Z,101541.59
2022-10-17T02:31:47.923Z,101468.66
2022-10-17T02:34:03.208Z,101545.31
2022-10-17T02:36:20.918Z,101555.88
2022-10-17T02:38:25.603Z,101560.88
2022-10-17T02:40:31.094Z,101588.06
2022-10-17T02:42:35.270Z,101566.22
2022-10-17T02:44:44.038Z,101568.97
2022-10-17T02:47:07.651Z,101565.63
2022-10-17T02:49:23.598Z,101557.81
2022-10-17T02:51:49.494Z,101580.88
2022-10-17T02:54:15.272Z,101603.25
2022-10-17T02:56:20.496Z,101517.09
2022-10-17T02:58:31.506Z,101533.25
2022-10-17T03:00:35.299Z,101587.22
2022-10-17T03:02:50.879Z,101512.50
2022-10-17T03:04:53.664Z,101476.47
2022-10-17T03:06:56.338Z,101594.47
2022-10-17T03:08:59.106Z,101586.44
2022-10-17T03:11:02.799Z,101515.63
2022-10-17T03:13:06.313Z,101499.63
2022-10-17T03:15:13.616Z,101556.34
2022-10-17T03:17:16.941Z,101566.38
2022-10-17T03:19:19.544Z,101567.97
2022-10-17T03:21:22.385Z,101563.50
2022-10-17T03:23:25.002Z,101574.72
2022-10-17T03:25:28.118Z,101556.34
2022-10-17T03:27:31.341Z,101556.25
2022-10-17T03:29:34.125Z,101482.63
2022-10-17T03:31:38.562Z,101487.91
2022-10-17T03:33:42.879Z,101537.78
2022-10-17T03:35:45.505Z,101533.47
2022-10-17T03:37:48.233Z,101532.72
2022-10-17T03:39:51.914Z,101456.31
2022-10-17T03:41:54.556Z,101574.56
2022-10-17T03:43:57.182Z,101559.47
2022-10-17T03:46:00.866Z,101559.09
2022-10-17T03:48:04.527Z,101483.66
2022-10-17T03:50:07.654Z,101543.28
2022-10-17T03:52:13.923Z,101556.91
2022-10-17T03:54:16.466Z,101547.75
2022-10-17T03:56:24.536Z,101531.41
2022-10-17T03:58:35.188Z,101554.81
2022-10-17T04:00:38.404Z,101563.50
2022-10-17T04:02:41.494Z,101554.28
2022-10-17T04:04:47.453Z,101527.75
2022-10-17T04:06:50.077Z,101534.75
2022-10-17T04:08:53.453Z,101565.97
2022-10-17T04:11:07.005Z,101531.97
2022-10-17T04:13:09.608Z,101571.03
2022-10-17T04:15:12.429Z,101558.66
2022-10-17T04:17:26.895Z,101552.72
2022-10-17T04:19:29.601Z,101553.53
2022-10-17T04:21:32.332Z,101558.25
2022-10-17T04:23:40.474Z,101576.16
2022-10-17T04:25:57.565Z,101582.81
2022-10-17T04:28:01.237Z,101573.50
2022-10-17T04:30:04.214Z,101529.19
2022-10-17T04:32:08.829Z,101562.25
2022-10-17T04:34:19.264Z,101540.00
2022-10-17T04:36:23.403Z,101539.34
2022-10-17T04:38:28.652Z,101576.31
2022-10-17T04:40:31.721Z,101522.13
2022-10-17T04:42:35.127Z,101545.66
2022-10-17T04:44:37.718Z,101458.00
2022-10-17T04:46:40.537Z,101468.78
2022-10-17T04:48:43.271Z,101468.75
2022-10-17T04:51:00.372Z,101516.78
2022-10-17T04:53:10.275Z,101527.97
2022-10-17T04:55:17.017Z,101541.66
2022-10-17T04:57:20.128Z,101542.03
2022-10-17T04:59:31.366Z,101579.31
2022-10-17T05:02:21.339Z,101557.38
2022-10-17T05:04:25.349Z,101471.75
2022-10-17T05:06:29.059Z,101545.22
2022-10-17T05:09:03.990Z,101553.50
2022-10-17T05:11:19.525Z,101588.28
2022-10-17T05:13:22.894Z,101486.13
2022-10-17T05:15:25.492Z,101539.59
2022-10-17T05:17:31.046Z,101550.25
2022-10-17T05:19:33.655Z,101587.72
2022-10-17T05:21:37.496Z,101577.25
2022-10-17T05:23:41.159Z,101531.44
2022-10-17T05:25:43.717Z,101534.09
2022-10-17T05:27:47.480Z,101521.22
2022-10-17T05:30:13.057Z,101561.88
2022-10-17T05:32:17.193Z,101563.31
2022-10-17T05:34:20.028Z,101584.34
2022-10-17T05:36:25.068Z,101579.06
2022-10-17T05:38:29.699Z,101479.03
2022-10-17T05:40:32.698Z,101578.75
2022-10-17T05:42:35.385Z,101529.75
2022-10-17T05:44:39.671Z,101605.63
2022-10-17T05:46:43.272Z,101559.81
2022-10-17T05:49:14.727Z,101581.19
2022-10-17T05:51:27.039Z,101577.94
2022-10-17T05:53:33.651Z,101606.06
2022-10-17T05:55:40.018Z,101569.00
2022-10-17T05:58:09.731Z,101588.19
2022-10-17T06:00:17.758Z,101493.59
2022-10-17T06:02:28.360Z,101509.78
2022-10-17T06:04:31.738Z,101575.09
2022-10-17T06:06:38.347Z,101595.97
2022-10-17T06:08:41.280Z,101599.19
2022-10-17T06:10:51.034Z,101583.31
2022-10-17T06:12:53.850Z,101594.56
2022-10-17T06:14:56.604Z,101609.28
2022-10-17T06:16:59.506Z,101591.22
2022-10-17T06:19:02.918Z,101604.78
2022-10-17T06:21:10.369Z,101625.09
2022-10-17T06:23:41.533Z,101603.25
2022-10-17T06:25:51.993Z,101602.09
2022-10-17T06:27:54.510Z,101622.75
2022-10-17T06:29:58.072Z,101629.22
2022-10-17T06:32:00.896Z,101517.59
2022-10-17T06:34:03.640Z,101509.53
2022-10-17T06:36:08.677Z,101637.63
2022-10-17T06:38:40.946Z,101628.91
2022-10-17T06:40:50.840Z,101609.72
2022-10-17T06:42:53.396Z,101624.75
2022-10-17T06:45:01.194Z,101617.28
2022-10-17T06:47:31.203Z,101615.41
2022-10-17T06:49:37.273Z,101539.41
2022-10-17T06:51:53.958Z,101637.34
2022-10-17T06:54:04.232Z,101609.56
2022-10-17T06:56:27.240Z,101624.00
2022-10-17T06:58:47.727Z,101623.88
2022-10-17T07:03:12.002Z,101668.66
2022-10-17T07:05:14.687Z,101619.03
2022-10-17T07:07:17.279Z,101623.84
2022-10-17T07:09:20.179Z,101647.06
2022-10-17T07:11:23.560Z,101656.78
2022-10-17T07:13:28.007Z,101549.34
2022-10-17T07:15:32.447Z,101635.25
2022-10-17T07:23:03.255Z,101639.09
2022-10-17T07:30:53.721Z,101665.28
2022-10-17T07:32:57.145Z,101630.66
2022-10-17T07:34:59.738Z,101645.91
2022-10-17T07:37:02.893Z,101669.56
2022-10-17T07:39:08.156Z,101582.22
2022-10-17T07:41:26.774Z,101656.97
2022-10-17T07:43:30.868Z,101634.50
2022-10-17T07:45:35.165Z,101640.56
2022-10-17T07:47:37.747Z,101642.94
2022-10-17T07:49:45.299Z,101573.34
2022-10-17T07:51:50.265Z,101635.16
2022-10-17T07:53:53.842Z,101646.56
2022-10-17T07:55:56.523Z,101584.50
2022-10-17T07:58:00.572Z,101561.28
2022-10-17T08:00:03.772Z,101663.59
2022-10-17T08:02:44.485Z,101631.44
2022-10-17T08:04:47.063Z,101622.19
2022-10-17T08:06:53.389Z,101677.28
2022-10-17T08:08:59.719Z,101626.16
2022-10-17T08:11:31.803Z,101662.91
2022-10-17T08:13:36.677Z,101654.47
2022-10-17T08:15:39.371Z,101653.28
2022-10-17T08:17:41.950Z,101604.22
2022-10-17T08:19:44.629Z,101631.78
2022-10-17T08:21:51.884Z,101627.81
2022-10-17T08:23:54.474Z,101585.66
2022-10-17T08:26:01.218Z,101672.78
2022-10-17T08:28:03.877Z,101644.25
2022-10-17T08:30:07.254Z,101600.00
2022-10-17T08:32:10.409Z,101569.53
2022-10-17T08:34:13.056Z,101576.28
2022-10-17T08:36:19.824Z,101653.69
2022-10-17T08:38:25.096Z,101628.63
2022-10-17T08:40:33.833Z,101665.97
2022-10-17T08:43:17.702Z,101658.28
2022-10-17T08:45:52.846Z,101634.81
2022-10-17T08:48:01.273Z,101604.13
2022-10-17T08:50:09.998Z,101641.50
2022-10-17T08:52:45.334Z,101602.53
2022-10-17T08:54:49.315Z,101659.88
2022-10-17T08:56:55.151Z,101634.00
2022-10-17T08:58:58.812Z,101631.09
2022-10-17T09:01:33.801Z,101632.91
2022-10-17T09:04:33.241Z,101653.44
2022-10-17T09:06:43.959Z,101621.69
2022-10-17T09:09:08.290Z,101661.72
2022-10-17T09:11:38.547Z,101564.63
2022-10-17T09:14:46.830Z,101653.66
2022-10-17T09:17:22.403Z,101661.09
2022-10-17T09:20:04.028Z,101653.59
2022-10-17T09:22:15.236Z,101654.41
2022-10-17T09:24:28.538Z,101607.75
2022-10-17T09:26:35.053Z,101633.06
2022-10-17T09:28:43.884Z,101628.00
2022-10-17T09:30:56.657Z,101656.22
2022-10-17T09:33:01.247Z,101632.50
2022-10-17T09:35:14.079Z,101633.22
2022-10-17T09:37:33.739Z,101650.25
2022-10-17T09:39:36.434Z,101613.97
2022-10-17T09:41:48.700Z,101627.28
2022-10-17T09:43:58.762Z,101621.41
2022-10-17T09:46:23.665Z,101621.91
2022-10-17T09:48:40.116Z,101504.69
2022-10-17T09:50:48.270Z,101618.91
2022-10-17T09:53:01.936Z,101629.28
2022-10-17T09:55:38.149Z,101649.22
2022-10-17T09:58:00.969Z,101623.38
2022-10-17T10:00:06.539Z,101640.28
2022-10-17T10:03:02.037Z,101421.19
2022-10-17T10:05:19.134Z,101597.84
2022-10-17T10:07:26.892Z,101608.06
2022-10-17T10:09:36.828Z,101625.88
2022-10-17T10:11:55.277Z,101636.63
2022-10-17T10:14:15.874Z,101633.22
2022-10-17T10:16:26.753Z,101633.63
2022-10-17T10:18:36.030Z,101618.69
2022-10-17T10:20:38.678Z,101546.16
2022-10-17T10:22:41.267Z,101560.94
2022-10-17T10:24:43.870Z,101638.53
2022-10-17T10:26:48.927Z,101596.75
2022-10-17T10:29:05.388Z,101603.88
2022-10-17T10:31:09.955Z,101616.13
2022-10-17T10:33:12.791Z,101633.47
2022-10-17T10:35:27.303Z,101635.00
2022-10-17T10:37:43.659Z,101599.66
2022-10-17T10:39:51.299Z,101639.59
2022-10-17T10:41:54.308Z,101601.53
2022-10-17T10:43:56.907Z,101582.16
2022-10-17T10:46:00.750Z,101540.06
2022-10-17T10:48:25.347Z,101637.03
2022-10-17T10:51:02.660Z,101598.03
2022-10-17T10:53:35.147Z,101629.81
2022-10-17T10:55:53.531Z,101592.53
2022-10-17T10:58:22.296Z,101628.13
2022-10-17T11:00:29.148Z,101620.88
2022-10-17T11:03:01.208Z,101624.28
2022-10-17T11:05:37.872Z,101618.47
2022-10-17T11:08:10.578Z,101619.28
2022-10-17T11:10:33.086Z,101614.25
2022-10-17T11:12:40.349Z,101596.75
2022-10-17T11:14:51.789Z,101581.31
2022-10-17T11:17:39.650Z,101583.25
2022-10-17T11:20:01.569Z,101576.41
2022-10-17T11:22:24.016Z,101593.06
2022-10-17T11:24:47.377Z,101525.03
2022-10-17T11:27:03.533Z,101588.06
2022-10-17T11:29:09.017Z,101574.28
2022-10-17T11:31:16.268Z,101580.78
2022-10-17T11:33:56.456Z,101602.63
2022-10-17T11:36:05.508Z,101593.63
2022-10-17T11:38:40.677Z,101567.13
2022-10-17T11:40:49.389Z,101566.69
2022-10-17T11:43:09.825Z,101530.63
2022-10-17T11:45:20.315Z,101583.84
2022-10-17T11:47:49.422Z,101595.75
2022-10-17T11:51:59.882Z,101555.16
2022-10-17T11:52:56.063Z,101574.44
2022-10-17T11:55:23.828Z,101598.16
2022-10-17T11:57:56.469Z,101590.97
2022-10-17T12:00:20.533Z,101595.38
2022-10-17T12:03:01.387Z,101590.19
2022-10-17T12:05:31.864Z,101560.53
2022-10-17T12:07:46.499Z,101591.59
2022-10-17T12:09:57.381Z,101585.22
2022-10-17T12:12:02.645Z,101590.28
2022-10-17T12:14:33.750Z,101581.13
2022-10-17T12:16:39.645Z,101583.22
2022-10-17T12:18:42.569Z,101548.19
2022-10-17T12:21:00.125Z,101575.75
2022-10-17T12:23:32.112Z,101580.63
2022-10-17T12:28:26.468Z,101571.09
2022-10-17T12:30:35.242Z,101543.41
2022-10-17T12:33:05.539Z,101586.91
2022-10-17T12:35:22.459Z,101580.84
2022-10-17T12:37:43.478Z,101578.34
2022-10-17T12:39:47.060Z,101554.16
2022-10-17T12:41:49.738Z,101571.09
2022-10-17T12:43:54.665Z,101533.88
2022-10-17T12:45:59.935Z,101582.41
2022-10-17T12:48:02.753Z,101557.34
2022-10-17T12:51:17.746Z,101575.03
2022-10-17T12:54:15.442Z,101586.22
2022-10-17T12:56:30.041Z,101573.16
2022-10-17T12:58:48.233Z,101560.72
2022-10-17T13:01:48.625Z,101579.53
2022-10-17T13:03:53.104Z,101548.00
2022-10-17T13:06:06.063Z,101560.72
2022-10-17T13:08:22.302Z,101578.53
2022-10-17T13:10:30.424Z,101564.94
2022-10-17T13:12:41.238Z,101536.16
2022-10-17T13:14:47.505Z,101558.91
2022-10-17T13:17:02.772Z,101573.19
2022-10-17T13:19:16.211Z,101528.97
2022-10-17T13:21:18.999Z,101587.41
2022-10-17T13:23:26.691Z,101574.69
2022-10-17T13:25:29.266Z,101553.19
2022-10-17T13:27:35.445Z,101567.91
2022-10-17T13:29:44.884Z,101538.25
2022-10-17T13:31:54.571Z,101577.25
2022-10-17T13:34:00.134Z,101581.91
2022-10-17T13:36:13.683Z,101527.09
2022-10-17T13:38:44.066Z,101566.28
2022-10-17T13:40:50.605Z,101558.31
2022-10-17T13:42:56.350Z,101552.44
2022-10-17T13:44:59.702Z,101507.78
2022-10-17T13:47:02.607Z,101531.22
2022-10-17T13:49:28.130Z,101549.09
2022-10-17T13:51:31.782Z,101546.94
2022-10-17T13:53:41.488Z,101549.91
2022-10-17T13:56:26.272Z,101578.69
2022-10-17T13:58:25.950Z,101569.22
2022-10-17T14:00:28.607Z,101532.44
2022-10-17T14:02:41.909Z,101570.63
2022-10-17T14:05:15.693Z,101531.75
2022-10-17T14:07:27.029Z,101576.44
2022-10-17T14:09:30.984Z,101528.38
2022-10-17T14:11:40.605Z,101555.75
2022-10-17T14:15:12.671Z,101578.34
2022-10-17T14:18:35.939Z,101579.22
2022-10-17T14:23:22.042Z,101587.69
2022-10-17T14:25:40.135Z,101583.84
2022-10-17T14:28:19.514Z,101566.50
2022-10-17T14:30:51.782Z,101583.63
2022-10-17T14:32:50.375Z,101520.03
2022-10-17T14:35:16.582Z,101463.41
2022-10-17T14:37:47.715Z,101587.28
2022-10-17T14:39:51.991Z,101550.78
2022-10-17T14:41:55.413Z,101584.00
2022-10-17T14:44:16.352Z,101530.19
2022-10-17T14:46:19.090Z,101419.69
2022-10-17T14:48:23.550Z,101510.03
2022-10-17T14:51:18.385Z,101596.81
2022-10-17T14:53:21.862Z,101594.03
2022-10-17T14:55:28.655Z,101594.81
2022-10-17T14:57:34.438Z,101601.47
2022-10-17T14:59:53.401Z,101556.44
2022-10-17T15:01:57.082Z,101565.97
2022-10-17T15:03:59.686Z,101579.50
2022-10-17T15:06:19.486Z,101594.31
2022-10-17T15:08:24.199Z,101583.34
2022-10-17T15:10:37.270Z,101560.50
2022-10-17T15:12:47.007Z,101591.75
2022-10-17T15:14:58.983Z,101593.56
2022-10-17T15:17:01.502Z,101606.56
2022-10-17T15:19:04.121Z,101517.97
2022-10-17T15:21:26.470Z,101602.91
2022-10-17T15:23:48.330Z,101574.88
2022-10-17T15:25:50.903Z,101533.13
2022-10-17T15:27:54.011Z,101552.63
2022-10-17T15:30:01.285Z,101572.78
2022-10-17T15:32:03.810Z,101598.56
2022-10-17T15:34:06.366Z,101591.97
2022-10-17T15:36:31.073Z,101608.28
2022-10-17T15:38:34.207Z,101589.72
2022-10-17T15:40:36.706Z,101586.00
2022-10-17T15:42:39.258Z,101604.56
2022-10-17T15:44:44.282Z,101593.81
2022-10-17T15:46:46.928Z,101565.69
2022-10-17T15:48:49.732Z,101622.22
2022-10-17T15:50:52.273Z,101583.88
2022-10-17T15:54:15.629Z,101620.44
2022-10-17T15:56:25.341Z,101622.94
2022-10-17T15:58:40.409Z,101623.09
2022-10-17T16:00:43.629Z,101584.84
2022-10-17T16:02:47.067Z,101618.72
2022-10-17T16:04:51.161Z,101614.50
2022-10-17T16:06:53.807Z,101574.09
2022-10-17T16:08:56.417Z,101515.44
2022-10-17T16:10:59.096Z,101588.88
2022-10-17T16:13:01.623Z,101578.31
2022-10-17T16:15:04.573Z,101591.19
2022-10-17T16:17:10.949Z,101602.94
2022-10-17T16:19:13.509Z,101593.38
2022-10-17T16:21:18.488Z,101607.53
2022-10-17T16:23:23.650Z,101577.53
2022-10-17T16:25:29.959Z,101621.75
2022-10-17T16:27:32.540Z,101604.25
2022-10-17T16:29:35.213Z,101544.63
2022-10-17T16:31:42.842Z,101630.97
2022-10-17T16:33:45.620Z,101622.16
2022-10-17T16:35:49.364Z,101628.31
2022-10-17T16:37:52.047Z,101506.59
2022-10-17T16:40:12.239Z,101630.22
2022-10-17T16:42:14.817Z,101617.50
2022-10-17T16:44:18.002Z,101604.41
2022-10-17T16:46:21.248Z,101637.25
2022-10-17T16:48:29.832Z,101639.16
2022-10-17T16:50:35.671Z,101623.22
2022-10-17T16:54:02.592Z,101637.34
2022-10-17T16:56:08.475Z,101581.63
2022-10-17T16:58:11.181Z,101593.91
2022-10-17T17:00:14.525Z,101572.59
2022-10-17T17:02:34.492Z,101619.03
2022-10-17T17:04:37.259Z,101581.97
2022-10-17T17:06:39.845Z,101595.03
2022-10-17T17:08:43.410Z,101625.69
2022-10-17T17:10:51.160Z,101567.34
2022-10-17T17:12:53.717Z,101615.84
2022-10-17T17:14:56.292Z,101582.81
2022-10-17T17:16:58.877Z,101556.41
2022-10-17T17:19:12.468Z,101639.06
2022-10-17T17:21:15.735Z,101629.22
2022-10-17T17:23:18.241Z,101619.06
2022-10-17T17:25:21.941Z,101599.88
2022-10-17T17:27:25.210Z,101607.09
2022-10-17T17:29:28.105Z,101515.63
2022-10-17T17:31:34.139Z,101644.41
2022-10-17T17:33:39.353Z,101616.41
2022-10-17T17:35:41.933Z,101606.25
2022-10-17T17:37:44.468Z,101609.97
2022-10-17T17:39:47.129Z,101635.88
2022-10-17T17:41:50.684Z,101637.22
2022-10-17T17:43:54.892Z,101494.75
2022-10-17T17:45:57.385Z,101637.44
2022-10-17T17:48:01.694Z,101640.34
2022-10-17T17:50:04.625Z,101612.34
2022-10-17T17:52:08.703Z,101652.63
2022-10-17T17:54:13.759Z,101648.63
2022-10-17T17:56:23.174Z,101618.19
2022-10-17T17:58:26.097Z,101644.06
2022-10-17T18:00:29.259Z,101551.19
2022-10-17T18:02:32.848Z,101560.22
2022-10-17T18:04:35.994Z,101572.47
2022-10-17T18:06:39.538Z,101649.91
2022-10-17T18:08:46.888Z,101674.16
2022-10-17T18:10:54.395Z,101677.34
2022-10-17T18:12:56.930Z,101656.00
2022-10-17T18:14:59.478Z,101622.34
2022-10-17T18:17:02.016Z,101662.66
2022-10-17T18:19:07.149Z,101664.25
2022-10-17T18:21:12.857Z,101638.38
2022-10-17T18:23:15.376Z,101671.25
2022-10-17T18:25:18.113Z,101572.75
2022-10-17T18:27:20.661Z,101659.50
2022-10-17T18:29:23.195Z,101616.31
2022-10-17T18:31:28.928Z,101683.00
2022-10-17T18:33:31.463Z,101688.34
2022-10-17T18:35:34.805Z,101671.78
2022-10-17T18:37:37.400Z,101678.19
2022-10-17T18:39:40.332Z,101660.59
2022-10-17T18:41:42.970Z,101697.66
2022-10-17T18:43:47.196Z,101597.34
2022-10-17T18:45:49.744Z,101596.47
2022-10-17T18:47:54.716Z,101680.81
2022-10-17T18:49:57.738Z,101676.25
2022-10-17T18:52:00.275Z,101537.97
2022-10-17T18:54:03.662Z,101617.69
2022-10-17T18:56:06.337Z,101543.47
2022-10-17T18:58:08.908Z,101692.94
2022-10-17T19:00:12.161Z,101687.59
2022-10-17T19:02:14.742Z,101684.84
2022-10-17T19:04:17.545Z,101693.09
2022-10-17T19:06:24.070Z,101654.34
2022-10-17T19:08:26.595Z,101706.66
2022-10-17T19:10:29.226Z,101699.19
2022-10-17T19:12:32.144Z,101687.38
2022-10-17T19:14:35.143Z,101707.66
2022-10-17T19:16:37.843Z,101695.97
2022-10-17T19:18:40.603Z,101714.59
2022-10-17T19:20:43.757Z,101607.72
2022-10-17T19:22:46.364Z,101645.06
2022-10-17T19:24:48.952Z,101725.75
2022-10-17T19:26:55.282Z,101730.59
2022-10-17T19:29:00.381Z,101691.50
2022-10-17T19:31:05.511Z,101741.75
2022-10-17T19:33:08.106Z,101738.19
2022-10-17T19:35:11.415Z,101654.03
2022-10-17T19:37:41.736Z,101753.94
2022-10-17T19:39:44.301Z,101716.78
2022-10-17T19:41:48.348Z,101745.84
2022-10-17T19:43:51.161Z,101654.22
2022-10-17T19:46:02.662Z,101749.13
2022-10-17T19:48:05.718Z,101737.94
2022-10-17T19:50:16.301Z,101742.22
2022-10-17T19:52:18.871Z,101768.38
2022-10-17T19:54:21.396Z,101697.28
2022-10-17T19:56:25.298Z,101724.28
2022-10-17T19:58:28.376Z,101664.16
2022-10-17T20:00:30.929Z,101588.97
2022-10-17T20:02:33.558Z,101706.59
2022-10-17T20:04:39.435Z,101732.53
2022-10-17T20:06:44.656Z,101663.84
2022-10-17T20:08:47.577Z,101742.69
2022-10-17T20:10:50.107Z,101734.66
2022-10-17T20:12:52.610Z,101718.09
2022-10-17T20:14:55.388Z,101739.72
2022-10-17T20:16:57.906Z,101759.22
2022-10-17T20:19:09.724Z,101767.75
2022-10-17T20:21:17.503Z,101751.19
2022-10-17T20:23:20.174Z,101756.78
2022-10-17T20:25:22.933Z,101738.03
2022-10-17T20:27:27.724Z,101733.44
2022-10-17T20:29:30.489Z,101727.34
2022-10-17T20:31:33.054Z,101741.50
2022-10-17T20:33:35.649Z,101713.13
2022-10-17T20:35:43.197Z,101764.16
2022-10-17T20:37:59.070Z,101722.16
2022-10-17T20:40:23.021Z,101694.31
2022-10-17T20:42:27.619Z,101755.75
2022-10-17T20:48:34.223Z,101761.25
2022-10-17T20:50:37.732Z,101730.44
2022-10-17T20:52:40.281Z,101767.91
2022-10-17T20:55:13.173Z,101756.09
2022-10-17T20:57:15.745Z,101757.69
2022-10-17T20:59:18.531Z,101768.34
2022-10-17T21:01:22.619Z,101789.69
2022-10-17T21:03:25.788Z,101772.03
2022-10-17T21:05:28.405Z,101766.53
2022-10-17T21:07:31.178Z,101807.47
2022-10-17T21:09:33.898Z,101792.69
2022-10-17T21:11:36.415Z,101784.66
2022-10-17T21:13:39.627Z,101816.44
2022-10-17T21:15:44.931Z,101796.78
2022-10-17T21:17:47.441Z,101814.69
2022-10-17T21:19:50.002Z,101812.22
2022-10-17T21:21:52.552Z,101778.00
2022-10-17T21:23:58.769Z,101797.78
2022-10-17T21:26:01.338Z,101809.53
2022-10-17T21:28:03.887Z,101794.56
2022-10-17T21:32:19.633Z,101821.94
2022-10-17T21:34:34.041Z,101813.88
2022-10-17T21:36:36.778Z,101768.38
2022-10-17T21:38:40.679Z,101796.97
2022-10-17T21:40:46.953Z,101781.75
2022-10-17T21:42:49.458Z,101775.00
2022-10-17T21:44:52.047Z,101811.88
2022-10-17T21:46:55.645Z,101824.44
2022-10-17T21:49:00.307Z,101782.06
2022-10-17T21:51:06.307Z,101751.97
2022-10-17T21:53:08.855Z,101833.28
2022-10-17T21:55:11.405Z,101847.31
2022-10-17T21:57:13.992Z,101820.66
2022-10-17T21:59:16.948Z,101843.47
2022-10-17T22:01:33.803Z,101850.88
2022-10-17T22:03:42.668Z,101810.88
2022-10-17T22:05:48.290Z,101821.34
2022-10-17T22:07:50.836Z,101833.56
2022-10-17T22:09:53.467Z,101839.19
2022-10-17T22:11:57.685Z,101847.69
2022-10-17T22:14:12.120Z,101805.66
2022-10-17T22:16:16.744Z,101787.19
2022-10-17T22:18:20.267Z,101805.56
2022-10-17T22:20:22.917Z,101821.31
2022-10-17T22:22:25.629Z,101752.41
2022-10-17T22:24:28.467Z,101821.81
2022-10-17T22:26:33.080Z,101862.47
2022-10-17T22:28:36.465Z,101866.41
2022-10-17T22:30:39.078Z,101780.56
2022-10-17T22:32:41.680Z,101849.72
2022-10-17T22:34:44.208Z,101831.81
2022-10-17T22:36:48.949Z,101841.22
2022-10-17T22:38:51.810Z,101837.75
2022-10-17T22:40:54.541Z,101867.22
2022-10-17T22:42:57.109Z,101749.28
2022-10-17T22:44:59.763Z,101860.69
2022-10-17T22:47:02.310Z,101832.78
2022-10-17T22:49:04.874Z,101779.75
2022-10-17T22:51:08.485Z,101769.22
2022-10-17T22:53:12.255Z,101735.22
2022-10-17T22:55:15.245Z,101779.56
2022-10-17T22:57:18.228Z,101858.91
2022-10-17T22:59:20.908Z,101872.84
2022-10-17T23:01:25.475Z,101868.13
2022-10-17T23:03:29.954Z,101869.72
2022-10-17T23:05:32.541Z,101810.75
2022-10-17T23:07:35.185Z,101864.44
2022-10-17T23:09:37.865Z,101833.41
2022-10-17T23:11:40.357Z,101791.63
2022-10-17T23:13:42.961Z,101837.13
2022-10-17T23:15:45.877Z,101845.38
2022-10-17T23:17:48.767Z,101675.34
2022-10-17T23:19:54.151Z,101839.19
2022-10-17T23:22:00.264Z,101869.13
2022-10-17T23:24:02.760Z,101809.06
2022-10-17T23:26:14.035Z,101855.47
2022-10-17T23:28:17.001Z,101868.66
2022-10-17T23:30:19.541Z,101865.59
2022-10-17T23:32:22.093Z,101743.03
2022-10-17T23:34:24.673Z,101854.09
2022-10-17T23:36:27.286Z,101847.59
2022-10-17T23:38:29.813Z,101853.38
2022-10-17T23:40:32.367Z,101852.91
2022-10-17T23:42:34.928Z,101814.47
2022-10-17T23:44:37.432Z,101856.09
2022-10-17T23:46:40.002Z,101882.34
2022-10-17T23:48:42.639Z,101871.53
2022-10-17T23:50:45.299Z,101850.66
2022-10-17T23:52:47.894Z,101855.00
2022-10-17T23:54:50.439Z,101813.50
2022-10-17T23:56:53.006Z,101805.63
2022-10-17T23:58:55.505Z,101883.16
